Terminal Aerodrome Forecast
Issued by NWS

Home | Current Version | Previous Version | Text Only | Print | Product List | Glossary On
Versions: 1 2 3 4 5 6 7 8 9 10 11 12 13 14 15 16 17 18
000
FTUS44 KBMX 262327
TAFTCL
TAF
KTCL 262327Z 2700/2724 34012G20KT P6SM VCSH SCT015 OVC040
      TEMPO 2700/2702 OVC015
     FM270200 34010KT P6SM VCSH OVC015
      TEMPO 2704/2708 OVC008
     FM271200 34010KT P6SM SCT025=

USA.gov is the U.S. government's official web portal to all federal, state and local government web resources and services.